sensor_id;sensor_type;location;lat;lon;timestamp;temperature;humidity
25945;SHT31;13742;49.306;8.636;2023-02-15T00:00:33;1.64;93.06
25945;SHT31;13742;49.306;8.636;2023-02-15T00:01:33;1.64;93.03
25945;SHT31;13742;49.306;8.636;2023-02-15T00:02:32;1.61;93.17
25945;SHT31;13742;49.306;8.636;2023-02-15T00:03:33;1.57;93.15
25945;SHT31;13742;49.306;8.636;2023-02-15T00:04:38;1.53;93.09
25945;SHT31;13742;49.306;8.636;2023-02-15T00:05:33;1.47;93.17
25945;SHT31;13742;49.306;8.636;2023-02-15T00:06:33;1.44;93.30
25945;SHT31;13742;49.306;8.636;2023-02-15T00:07:33;1.47;93.56
25945;SHT31;13742;49.306;8.636;2023-02-15T00:08:33;1.51;93.48
25945;SHT31;13742;49.306;8.636;2023-02-15T00:09:32;1.58;93.57
25945;SHT31;13742;49.306;8.636;2023-02-15T00:10:33;1.46;93.33
25945;SHT31;13742;49.306;8.636;2023-02-15T00:11:38;1.34;93.36
25945;SHT31;13742;49.306;8.636;2023-02-15T00:12:32;1.41;93.69
25945;SHT31;13742;49.306;8.636;2023-02-15T00:13:33;1.44;93.86
25945;SHT31;13742;49.306;8.636;2023-02-15T00:14:32;1.49;93.71
25945;SHT31;13742;49.306;8.636;2023-02-15T00:15:33;1.50;93.77
25945;SHT31;13742;49.306;8.636;2023-02-15T00:16:33;1.41;93.56
25945;SHT31;13742;49.306;8.636;2023-02-15T00:17:32;1.37;93.62
25945;SHT31;13742;49.306;8.636;2023-02-15T00:18:33;1.31;93.62
25945;SHT31;13742;49.306;8.636;2023-02-15T00:19:33;1.40;93.70
25945;SHT31;13742;49.306;8.636;2023-02-15T00:20:33;1.40;93.82
25945;SHT31;13742;49.306;8.636;2023-02-15T00:21:34;1.37;93.86
25945;SHT31;13742;49.306;8.636;2023-02-15T00:22:32;1.46;93.63
25945;SHT31;13742;49.306;8.636;2023-02-15T00:23:33;1.46;93.64
25945;SHT31;13742;49.306;8.636;2023-02-15T00:24:33;1.46;93.48
25945;SHT31;13742;49.306;8.636;2023-02-15T00:25:32;1.49;93.66
25945;SHT31;13742;49.306;8.636;2023-02-15T00:26:33;1.50;93.50
25945;SHT31;13742;49.306;8.636;2023-02-15T00:27:33;1.53;93.28
25945;SHT31;13742;49.306;8.636;2023-02-15T00:28:32;1.53;93.12
25945;SHT31;13742;49.306;8.636;2023-02-15T00:29:32;1.47;93.27
25945;SHT31;13742;49.306;8.636;2023-02-15T00:30:32;1.40;93.32
25945;SHT31;13742;49.306;8.636;2023-02-15T00:31:33;1.44;93.47
25945;SHT31;13742;49.306;8.636;2023-02-15T00:32:32;1.49;93.53
25945;SHT31;13742;49.306;8.636;2023-02-15T00:33:33;1.53;93.80
25945;SHT31;13742;49.306;8.636;2023-02-15T00:34:33;1.51;93.59
25945;SHT31;13742;49.306;8.636;2023-02-15T00:35:32;1.53;93.30
25945;SHT31;13742;49.306;8.636;2023-02-15T00:36:33;1.55;93.18
25945;SHT31;13742;49.306;8.636;2023-02-15T00:37:32;1.58;93.45
25945;SHT31;13742;49.306;8.636;2023-02-15T00:38:33;1.60;93.42
25945;SHT31;13742;49.306;8.636;2023-02-15T00:39:33;1.62;93.41
25945;SHT31;13742;49.306;8.636;2023-02-15T00:40:32;1.54;93.17
25945;SHT31;13742;49.306;8.636;2023-02-15T00:41:33;1.55;93.10
25945;SHT31;13742;49.306;8.636;2023-02-15T00:42:32;1.55;93.07
25945;SHT31;13742;49.306;8.636;2023-02-15T00:43:34;1.58;93.05
25945;SHT31;13742;49.306;8.636;2023-02-15T00:44:32;1.53;92.86
25945;SHT31;13742;49.306;8.636;2023-02-15T00:45:32;1.50;92.84
25945;SHT31;13742;49.306;8.636;2023-02-15T00:46:33;1.47;93.06
25945;SHT31;13742;49.306;8.636;2023-02-15T00:47:32;1.49;93.17
25945;SHT31;13742;49.306;8.636;2023-02-15T00:48:33;1.44;93.27
25945;SHT31;13742;49.306;8.636;2023-02-15T00:49:32;1.47;93.38
25945;SHT31;13742;49.306;8.636;2023-02-15T00:50:32;1.49;93.22
25945;SHT31;13742;49.306;8.636;2023-02-15T00:51:33;1.47;92.89
25945;SHT31;13742;49.306;8.636;2023-02-15T00:52:32;1.49;92.89
25945;SHT31;13742;49.306;8.636;2023-02-15T00:53:32;1.50;93.01
25945;SHT31;13742;49.306;8.636;2023-02-15T00:54:34;1.49;93.01
25945;SHT31;13742;49.306;8.636;2023-02-15T00:55:33;1.51;93.03
25945;SHT31;13742;49.306;8.636;2023-02-15T00:56:33;1.50;93.04
25945;SHT31;13742;49.306;8.636;2023-02-15T00:57:32;1.51;92.90
25945;SHT31;13742;49.306;8.636;2023-02-15T00:58:32;1.39;92.78
25945;SHT31;13742;49.306;8.636;2023-02-15T00:59:32;1.40;93.04
25945;SHT31;13742;49.306;8.636;2023-02-15T01:00:33;1.40;92.95
25945;SHT31;13742;49.306;8.636;2023-02-15T01:01:32;1.40;92.98
25945;SHT31;13742;49.306;8.636;2023-02-15T01:02:32;1.26;93.03
25945;SHT31;13742;49.306;8.636;2023-02-15T01:03:33;1.30;93.36
25945;SHT31;13742;49.306;8.636;2023-02-15T01:04:32;1.36;93.43
25945;SHT31;13742;49.306;8.636;2023-02-15T01:05:33;1.34;93.25
25945;SHT31;13742;49.306;8.636;2023-02-15T01:06:33;1.33;93.44
25945;SHT31;13742;49.306;8.636;2023-02-15T01:07:32;1.31;93.50
25945;SHT31;13742;49.306;8.636;2023-02-15T01:08:33;1.33;93.41
25945;SHT31;13742;49.306;8.636;2023-02-15T01:09:32;1.24;93.45
25945;SHT31;13742;49.306;8.636;2023-02-15T01:10:34;1.33;93.77
25945;SHT31;13742;49.306;8.636;2023-02-15T01:11:32;1.36;93.69
25945;SHT31;13742;49.306;8.636;2023-02-15T01:12:33;1.36;93.63
25945;SHT31;13742;49.306;8.636;2023-02-15T01:13:33;1.37;93.67
25945;SHT31;13742;49.306;8.636;2023-02-15T01:14:32;1.37;93.65
25945;SHT31;13742;49.306;8.636;2023-02-15T01:15:36;1.44;93.58
25945;SHT31;13742;49.306;8.636;2023-02-15T01:16:32;1.34;93.50
25945;SHT31;13742;49.306;8.636;2023-02-15T01:17:32;1.26;93.50
25945;SHT31;13742;49.306;8.636;2023-02-15T01:18:35;1.30;93.72
25945;SHT31;13742;49.306;8.636;2023-02-15T01:19:32;1.37;93.79
25945;SHT31;13742;49.306;8.636;2023-02-15T01:20:35;1.34;93.73
25945;SHT31;13742;49.306;8.636;2023-02-15T01:21:34;1.31;93.64
25945;SHT31;13742;49.306;8.636;2023-02-15T01:22:32;1.36;93.62
25945;SHT31;13742;49.306;8.636;2023-02-15T01:23:32;1.37;93.44
25945;SHT31;13742;49.306;8.636;2023-02-15T01:24:32;1.40;93.65
25945;SHT31;13742;49.306;8.636;2023-02-15T01:25:34;1.27;93.41
25945;SHT31;13742;49.306;8.636;2023-02-15T01:26:32;1.15;93.50
25945;SHT31;13742;49.306;8.636;2023-02-15T01:27:32;1.24;93.95
25945;SHT31;13742;49.306;8.636;2023-02-15T01:28:32;1.22;94.03
25945;SHT31;13742;49.306;8.636;2023-02-15T01:29:32;1.30;94.26
25945;SHT31;13742;49.306;8.636;2023-02-15T01:30:33;1.27;94.09
25945;SHT31;13742;49.306;8.636;2023-02-15T01:31:32;1.26;93.92
25945;SHT31;13742;49.306;8.636;2023-02-15T01:32:32;1.22;93.94
25945;SHT31;13742;49.306;8.636;2023-02-15T01:33:33;1.22;94.08
25945;SHT31;13742;49.306;8.636;2023-02-15T01:34:33;1.26;94.11
25945;SHT31;13742;49.306;8.636;2023-02-15T01:35:33;1.31;94.15
25945;SHT31;13742;49.306;8.636;2023-02-15T01:36:33;1.31;94.13
25945;SHT31;13742;49.306;8.636;2023-02-15T01:37:33;1.34;94.09
25945;SHT31;13742;49.306;8.636;2023-02-15T01:38:33;1.37;94.14
25945;SHT31;13742;49.306;8.636;2023-02-15T01:39:32;1.39;94.03
25945;SHT31;13742;49.306;8.636;2023-02-15T01:40:33;1.40;93.92
25945;SHT31;13742;49.306;8.636;2023-02-15T01:41:33;1.44;94.03
25945;SHT31;13742;49.306;8.636;2023-02-15T01:42:32;1.46;93.92
25945;SHT31;13742;49.306;8.636;2023-02-15T01:43:41;1.49;93.73
25945;SHT31;13742;49.306;8.636;2023-02-15T01:45:33;1.51;93.64
25945;SHT31;13742;49.306;8.636;2023-02-15T01:46:40;1.55;93.74
25945;SHT31;13742;49.306;8.636;2023-02-15T01:47:43;1.58;93.73
25945;SHT31;13742;49.306;8.636;2023-02-15T01:48:32;1.55;93.39
25945;SHT31;13742;49.306;8.636;2023-02-15T01:49:33;1.57;93.35
25945;SHT31;13742;49.306;8.636;2023-02-15T01:50:38;1.53;93.02
25945;SHT31;13742;49.306;8.636;2023-02-15T01:51:34;1.58;93.01
25945;SHT31;13742;49.306;8.636;2023-02-15T01:52:36;1.58;93.05
25945;SHT31;13742;49.306;8.636;2023-02-15T01:54:33;1.61;93.10
25945;SHT31;13742;49.306;8.636;2023-02-15T01:55:37;1.62;93.00
25945;SHT31;13742;49.306;8.636;2023-02-15T01:56:35;1.61;92.95
25945;SHT31;13742;49.306;8.636;2023-02-15T01:57:33;1.64;93.10
25945;SHT31;13742;49.306;8.636;2023-02-15T01:58:34;1.67;93.20
25945;SHT31;13742;49.306;8.636;2023-02-15T01:59:35;1.68;93.11
25945;SHT31;13742;49.306;8.636;2023-02-15T02:00:33;1.70;93.05
25945;SHT31;13742;49.306;8.636;2023-02-15T02:01:32;1.72;93.00
25945;SHT31;13742;49.306;8.636;2023-02-15T02:02:33;1.71;92.81
25945;SHT31;13742;49.306;8.636;2023-02-15T02:04:38;1.68;92.61
25945;SHT31;13742;49.306;8.636;2023-02-15T02:05:32;1.71;92.59
25945;SHT31;13742;49.306;8.636;2023-02-15T02:06:34;1.65;92.53
25945;SHT31;13742;49.306;8.636;2023-02-15T02:07:36;1.68;92.57
25945;SHT31;13742;49.306;8.636;2023-02-15T02:08:32;1.67;92.82
25945;SHT31;13742;49.306;8.636;2023-02-15T02:09:32;1.70;92.85
25945;SHT31;13742;49.306;8.636;2023-02-15T02:10:33;1.68;92.76
25945;SHT31;13742;49.306;8.636;2023-02-15T02:11:33;1.65;92.64
25945;SHT31;13742;49.306;8.636;2023-02-15T02:12:33;1.68;92.83
25945;SHT31;13742;49.306;8.636;2023-02-15T02:13:32;1.64;92.91
25945;SHT31;13742;49.306;8.636;2023-02-15T02:14:33;1.50;92.77
25945;SHT31;13742;49.306;8.636;2023-02-15T02:16:40;1.50;93.52
25945;SHT31;13742;49.306;8.636;2023-02-15T02:18:58;1.51;93.55
25945;SHT31;13742;49.306;8.636;2023-02-15T02:24:45;1.58;93.69
25945;SHT31;13742;49.306;8.636;2023-02-15T02:25:48;1.62;93.71
25945;SHT31;13742;49.306;8.636;2023-02-15T02:28:46;1.54;93.80
25945;SHT31;13742;49.306;8.636;2023-02-15T02:29:45;1.55;93.75
25945;SHT31;13742;49.306;8.636;2023-02-15T02:31:47;1.60;93.70
25945;SHT31;13742;49.306;8.636;2023-02-15T02:35:22;1.50;93.70
25945;SHT31;13742;49.306;8.636;2023-02-15T02:41:40;1.54;93.15
25945;SHT31;13742;49.306;8.636;2023-02-15T02:42:41;1.54;93.19
25945;SHT31;13742;49.306;8.636;2023-02-15T02:44:41;1.57;93.21
25945;SHT31;13742;49.306;8.636;2023-02-15T02:45:40;1.61;93.69
25945;SHT31;13742;49.306;8.636;2023-02-15T02:46:37;1.60;93.59
25945;SHT31;13742;49.306;8.636;2023-02-15T02:47:38;1.64;93.71
25945;SHT31;13742;49.306;8.636;2023-02-15T02:48:33;1.65;93.84
25945;SHT31;13742;49.306;8.636;2023-02-15T02:49:35;1.68;93.91
25945;SHT31;13742;49.306;8.636;2023-02-15T02:50:32;1.64;93.53
25945;SHT31;13742;49.306;8.636;2023-02-15T02:51:32;1.67;93.66
25945;SHT31;13742;49.306;8.636;2023-02-15T02:52:48;1.65;93.64
25945;SHT31;13742;49.306;8.636;2023-02-15T02:53:33;1.68;93.68
25945;SHT31;13742;49.306;8.636;2023-02-15T02:54:34;1.70;93.64
25945;SHT31;13742;49.306;8.636;2023-02-15T02:55:42;1.70;93.56
25945;SHT31;13742;49.306;8.636;2023-02-15T02:56:41;1.71;93.51
25945;SHT31;13742;49.306;8.636;2023-02-15T02:57:34;1.72;93.57
25945;SHT31;13742;49.306;8.636;2023-02-15T02:58:42;1.70;93.44
25945;SHT31;13742;49.306;8.636;2023-02-15T02:59:36;1.67;93.47
25945;SHT31;13742;49.306;8.636;2023-02-15T03:00:37;1.54;93.40
25945;SHT31;13742;49.306;8.636;2023-02-15T03:01:39;1.54;93.59
25945;SHT31;13742;49.306;8.636;2023-02-15T03:02:36;1.61;93.67
25945;SHT31;13742;49.306;8.636;2023-02-15T03:03:39;1.64;93.53
25945;SHT31;13742;49.306;8.636;2023-02-15T03:04:36;1.55;93.45
25945;SHT31;13742;49.306;8.636;2023-02-15T03:05:36;1.55;93.56
25945;SHT31;13742;49.306;8.636;2023-02-15T03:06:42;1.55;93.59
25945;SHT31;13742;49.306;8.636;2023-02-15T03:07:34;1.60;93.50
25945;SHT31;13742;49.306;8.636;2023-02-15T03:08:36;1.62;93.89
25945;SHT31;13742;49.306;8.636;2023-02-15T03:09:45;1.46;93.86
25945;SHT31;13742;49.306;8.636;2023-02-15T03:10:34;1.53;93.98
25945;SHT31;13742;49.306;8.636;2023-02-15T03:11:33;1.54;93.85
25945;SHT31;13742;49.306;8.636;2023-02-15T03:12:35;1.57;93.89
25945;SHT31;13742;49.306;8.636;2023-02-15T03:13:33;1.53;93.91
25945;SHT31;13742;49.306;8.636;2023-02-15T03:14:33;1.55;94.09
25945;SHT31;13742;49.306;8.636;2023-02-15T03:15:49;1.55;94.13
25945;SHT31;13742;49.306;8.636;2023-02-15T03:16:32;1.60;94.19
25945;SHT31;13742;49.306;8.636;2023-02-15T03:17:36;1.58;94.13
25945;SHT31;13742;49.306;8.636;2023-02-15T03:18:50;1.61;94.18
25945;SHT31;13742;49.306;8.636;2023-02-15T03:19:35;1.62;94.19
25945;SHT31;13742;49.306;8.636;2023-02-15T03:20:35;1.62;94.22
25945;SHT31;13742;49.306;8.636;2023-02-15T03:21:44;1.57;94.06
25945;SHT31;13742;49.306;8.636;2023-02-15T03:22:43;1.61;94.01
25945;SHT31;13742;49.306;8.636;2023-02-15T03:23:34;1.65;94.11
25945;SHT31;13742;49.306;8.636;2023-02-15T03:24:40;1.68;94.12
25945;SHT31;13742;49.306;8.636;2023-02-15T03:25:44;1.65;93.90
25945;SHT31;13742;49.306;8.636;2023-02-15T03:26:33;1.67;93.99
25945;SHT31;13742;49.306;8.636;2023-02-15T03:27:47;1.68;94.00
25945;SHT31;13742;49.306;8.636;2023-02-15T03:28:40;1.72;93.89
25945;SHT31;13742;49.306;8.636;2023-02-15T03:29:33;1.74;93.83
25945;SHT31;13742;49.306;8.636;2023-02-15T03:30:34;1.74;93.82
25945;SHT31;13742;49.306;8.636;2023-02-15T03:31:36;1.75;93.83
25945;SHT31;13742;49.306;8.636;2023-02-15T03:32:34;1.75;93.70
25945;SHT31;13742;49.306;8.636;2023-02-15T03:33:36;1.75;93.56
25945;SHT31;13742;49.306;8.636;2023-02-15T03:34:33;1.79;93.48
25945;SHT31;13742;49.306;8.636;2023-02-15T03:35:43;1.78;93.32
25945;SHT31;13742;49.306;8.636;2023-02-15T03:37:38;1.79;93.46
25945;SHT31;13742;49.306;8.636;2023-02-15T03:38:39;1.81;93.36
25945;SHT31;13742;49.306;8.636;2023-02-15T03:40:41;1.82;93.66
25945;SHT31;13742;49.306;8.636;2023-02-15T03:41:37;1.86;93.70
25945;SHT31;13742;49.306;8.636;2023-02-15T03:42:36;1.88;93.72
25945;SHT31;13742;49.306;8.636;2023-02-15T03:44:41;1.91;93.65
25945;SHT31;13742;49.306;8.636;2023-02-15T03:45:33;1.88;93.44
25945;SHT31;13742;49.306;8.636;2023-02-15T03:46:39;1.85;93.27
25945;SHT31;13742;49.306;8.636;2023-02-15T03:47:36;1.86;93.48
25945;SHT31;13742;49.306;8.636;2023-02-15T03:48:43;1.82;93.45
25945;SHT31;13742;49.306;8.636;2023-02-15T03:49:44;1.85;93.53
25945;SHT31;13742;49.306;8.636;2023-02-15T03:50:38;1.82;93.56
25945;SHT31;13742;49.306;8.636;2023-02-15T03:51:38;1.79;93.48
25945;SHT31;13742;49.306;8.636;2023-02-15T03:52:33;1.79;93.61
25945;SHT31;13742;49.306;8.636;2023-02-15T03:53:33;1.72;93.62
25945;SHT31;13742;49.306;8.636;2023-02-15T03:54:38;1.78;93.89
25945;SHT31;13742;49.306;8.636;2023-02-15T03:55:34;1.70;93.76
25945;SHT31;13742;49.306;8.636;2023-02-15T03:56:34;1.74;93.94
25945;SHT31;13742;49.306;8.636;2023-02-15T03:57:37;1.77;93.97
25945;SHT31;13742;49.306;8.636;2023-02-15T03:58:37;1.72;93.97
25945;SHT31;13742;49.306;8.636;2023-02-15T03:59:37;1.70;93.85
25945;SHT31;13742;49.306;8.636;2023-02-15T04:00:43;1.74;94.02
25945;SHT31;13742;49.306;8.636;2023-02-15T04:01:48;1.74;94.14
25945;SHT31;13742;49.306;8.636;2023-02-15T04:03:41;1.77;94.28
25945;SHT31;13742;49.306;8.636;2023-02-15T04:04:38;1.78;94.24
25945;SHT31;13742;49.306;8.636;2023-02-15T04:05:32;1.82;94.16
25945;SHT31;13742;49.306;8.636;2023-02-15T04:06:32;1.79;94.08
25945;SHT31;13742;49.306;8.636;2023-02-15T04:07:32;1.79;94.06
25945;SHT31;13742;49.306;8.636;2023-02-15T04:08:37;1.82;94.01
25945;SHT31;13742;49.306;8.636;2023-02-15T04:09:37;1.86;94.07
25945;SHT31;13742;49.306;8.636;2023-02-15T04:10:38;1.86;94.02
25945;SHT31;13742;49.306;8.636;2023-02-15T04:11:32;1.88;94.03
25945;SHT31;13742;49.306;8.636;2023-02-15T04:12:32;1.91;94.00
25945;SHT31;13742;49.306;8.636;2023-02-15T04:13:32;1.91;93.99
25945;SHT31;13742;49.306;8.636;2023-02-15T04:14:37;1.89;93.91
25945;SHT31;13742;49.306;8.636;2023-02-15T04:15:37;1.92;93.82
25945;SHT31;13742;49.306;8.636;2023-02-15T04:16:32;1.92;93.72
25945;SHT31;13742;49.306;8.636;2023-02-15T04:17:32;1.93;93.72
25945;SHT31;13742;49.306;8.636;2023-02-15T04:18:42;1.96;93.79
25945;SHT31;13742;49.306;8.636;2023-02-15T04:19:37;1.98;93.79
25945;SHT31;13742;49.306;8.636;2023-02-15T04:20:37;1.96;93.66
25945;SHT31;13742;49.306;8.636;2023-02-15T04:21:37;2.01;93.62
25945;SHT31;13742;49.306;8.636;2023-02-15T04:22:37;2.02;93.58
25945;SHT31;13742;49.306;8.636;2023-02-15T04:23:37;2.02;93.80
25945;SHT31;13742;49.306;8.636;2023-02-15T04:24:37;2.03;93.69
25945;SHT31;13742;49.306;8.636;2023-02-15T04:25:32;2.05;93.54
25945;SHT31;13742;49.306;8.636;2023-02-15T04:26:32;2.06;93.50
25945;SHT31;13742;49.306;8.636;2023-02-15T04:27:33;2.05;93.54
25945;SHT31;13742;49.306;8.636;2023-02-15T04:28:32;2.09;93.48
25945;SHT31;13742;49.306;8.636;2023-02-15T04:29:32;2.08;93.53
25945;SHT31;13742;49.306;8.636;2023-02-15T04:30:32;2.10;93.55
25945;SHT31;13742;49.306;8.636;2023-02-15T04:31:32;2.12;93.48
25945;SHT31;13742;49.306;8.636;2023-02-15T04:32:33;2.13;93.45
25945;SHT31;13742;49.306;8.636;2023-02-15T04:33:32;2.13;93.38
25945;SHT31;13742;49.306;8.636;2023-02-15T04:34:32;2.10;93.25
25945;SHT31;13742;49.306;8.636;2023-02-15T04:35:33;2.12;93.19
25945;SHT31;13742;49.306;8.636;2023-02-15T04:36:32;2.12;93.18
25945;SHT31;13742;49.306;8.636;2023-02-15T04:37:33;2.12;93.17
25945;SHT31;13742;49.306;8.636;2023-02-15T04:38:32;2.14;93.12
25945;SHT31;13742;49.306;8.636;2023-02-15T04:39:32;2.16;93.15
25945;SHT31;13742;49.306;8.636;2023-02-15T04:40:32;2.16;93.12
25945;SHT31;13742;49.306;8.636;2023-02-15T04:41:33;2.14;93.08
25945;SHT31;13742;49.306;8.636;2023-02-15T04:42:33;2.17;93.11
25945;SHT31;13742;49.306;8.636;2023-02-15T04:43:32;2.16;93.07
25945;SHT31;13742;49.306;8.636;2023-02-15T04:44:32;2.17;93.09
25945;SHT31;13742;49.306;8.636;2023-02-15T04:45:32;2.17;93.02
25945;SHT31;13742;49.306;8.636;2023-02-15T04:46:32;2.19;93.06
25945;SHT31;13742;49.306;8.636;2023-02-15T04:47:32;2.17;92.97
25945;SHT31;13742;49.306;8.636;2023-02-15T04:48:32;2.20;92.89
25945;SHT31;13742;49.306;8.636;2023-02-15T04:49:32;2.19;92.85
25945;SHT31;13742;49.306;8.636;2023-02-15T04:50:32;2.19;92.78
25945;SHT31;13742;49.306;8.636;2023-02-15T04:51:32;2.17;92.78
25945;SHT31;13742;49.306;8.636;2023-02-15T04:52:32;2.19;92.81
25945;SHT31;13742;49.306;8.636;2023-02-15T04:53:33;2.23;92.81
25945;SHT31;13742;49.306;8.636;2023-02-15T04:54:32;2.19;92.77
25945;SHT31;13742;49.306;8.636;2023-02-15T04:55:32;2.20;92.79
25945;SHT31;13742;49.306;8.636;2023-02-15T04:56:34;2.17;92.78
25945;SHT31;13742;49.306;8.636;2023-02-15T04:57:32;2.20;92.82
25945;SHT31;13742;49.306;8.636;2023-02-15T04:58:32;2.22;92.77
25945;SHT31;13742;49.306;8.636;2023-02-15T04:59:32;2.19;92.68
25945;SHT31;13742;49.306;8.636;2023-02-15T05:00:32;2.19;92.65
25945;SHT31;13742;49.306;8.636;2023-02-15T05:01:33;2.19;92.60
25945;SHT31;13742;49.306;8.636;2023-02-15T05:02:32;2.17;92.64
25945;SHT31;13742;49.306;8.636;2023-02-15T05:03:32;2.19;92.63
25945;SHT31;13742;49.306;8.636;2023-02-15T05:04:32;2.22;92.74
25945;SHT31;13742;49.306;8.636;2023-02-15T05:05:32;2.24;92.71
25945;SHT31;13742;49.306;8.636;2023-02-15T05:06:32;2.24;92.85
25945;SHT31;13742;49.306;8.636;2023-02-15T05:07:32;2.24;92.76
25945;SHT31;13742;49.306;8.636;2023-02-15T05:08:32;2.24;92.77
25945;SHT31;13742;49.306;8.636;2023-02-15T05:09:32;2.26;92.84
25945;SHT31;13742;49.306;8.636;2023-02-15T05:10:32;2.26;92.82
25945;SHT31;13742;49.306;8.636;2023-02-15T05:11:32;2.28;92.74
25945;SHT31;13742;49.306;8.636;2023-02-15T05:12:32;2.29;93.04
25945;SHT31;13742;49.306;8.636;2023-02-15T05:13:32;2.29;93.07
25945;SHT31;13742;49.306;8.636;2023-02-15T05:14:32;2.29;92.90
25945;SHT31;13742;49.306;8.636;2023-02-15T05:15:32;2.30;92.74
25945;SHT31;13742;49.306;8.636;2023-02-15T05:16:32;2.30;92.70
25945;SHT31;13742;49.306;8.636;2023-02-15T05:17:32;2.30;92.79
25945;SHT31;13742;49.306;8.636;2023-02-15T05:18:32;2.33;92.92
25945;SHT31;13742;49.306;8.636;2023-02-15T05:19:32;2.33;92.79
25945;SHT31;13742;49.306;8.636;2023-02-15T05:20:33;2.30;92.76
25945;SHT31;13742;49.306;8.636;2023-02-15T05:21:33;2.32;92.94
25945;SHT31;13742;49.306;8.636;2023-02-15T05:22:32;2.33;92.83
25945;SHT31;13742;49.306;8.636;2023-02-15T05:23:32;2.30;92.66
25945;SHT31;13742;49.306;8.636;2023-02-15T05:24:37;2.34;92.86
25945;SHT31;13742;49.306;8.636;2023-02-15T05:25:37;2.39;92.88
25945;SHT31;13742;49.306;8.636;2023-02-15T05:26:37;2.37;92.99
25945;SHT31;13742;49.306;8.636;2023-02-15T05:27:37;2.41;93.13
25945;SHT31;13742;49.306;8.636;2023-02-15T05:28:33;2.44;93.28
25945;SHT31;13742;49.306;8.636;2023-02-15T05:29:32;2.44;93.30
25945;SHT31;13742;49.306;8.636;2023-02-15T05:30:32;2.47;92.91
25945;SHT31;13742;49.306;8.636;2023-02-15T05:31:33;2.47;92.68
25945;SHT31;13742;49.306;8.636;2023-02-15T05:32:32;2.43;92.45
25945;SHT31;13742;49.306;8.636;2023-02-15T05:33:33;2.40;92.26
25945;SHT31;13742;49.306;8.636;2023-02-15T05:34:32;2.37;92.03
25945;SHT31;13742;49.306;8.636;2023-02-15T05:35:33;2.39;92.10
25945;SHT31;13742;49.306;8.636;2023-02-15T05:36:32;2.36;92.08
25945;SHT31;13742;49.306;8.636;2023-02-15T05:37:32;2.36;92.12
25945;SHT31;13742;49.306;8.636;2023-02-15T05:38:33;2.37;92.11
25945;SHT31;13742;49.306;8.636;2023-02-15T05:39:32;2.36;92.03
25945;SHT31;13742;49.306;8.636;2023-02-15T05:40:32;2.32;91.95
25945;SHT31;13742;49.306;8.636;2023-02-15T05:41:32;2.34;91.96
25945;SHT31;13742;49.306;8.636;2023-02-15T05:42:32;2.33;92.02
25945;SHT31;13742;49.306;8.636;2023-02-15T05:43:32;2.33;91.97
25945;SHT31;13742;49.306;8.636;2023-02-15T05:44:32;2.30;91.94
25945;SHT31;13742;49.306;8.636;2023-02-15T05:45:32;2.30;91.98
25945;SHT31;13742;49.306;8.636;2023-02-15T05:46:32;2.30;91.93
25945;SHT31;13742;49.306;8.636;2023-02-15T05:47:32;2.29;91.90
25945;SHT31;13742;49.306;8.636;2023-02-15T05:48:33;2.28;91.90
25945;SHT31;13742;49.306;8.636;2023-02-15T05:49:32;2.28;91.90
25945;SHT31;13742;49.306;8.636;2023-02-15T05:50:32;2.23;91.77
25945;SHT31;13742;49.306;8.636;2023-02-15T05:51:32;2.24;91.92
25945;SHT31;13742;49.306;8.636;2023-02-15T05:52:32;2.24;91.93
25945;SHT31;13742;49.306;8.636;2023-02-15T05:53:35;2.28;91.93
25945;SHT31;13742;49.306;8.636;2023-02-15T05:54:32;2.24;91.90
25945;SHT31;13742;49.306;8.636;2023-02-15T05:55:32;2.28;91.91
25945;SHT31;13742;49.306;8.636;2023-02-15T05:56:32;2.24;91.91
25945;SHT31;13742;49.306;8.636;2023-02-15T05:57:32;2.26;91.98
25945;SHT31;13742;49.306;8.636;2023-02-15T05:58:35;2.28;91.94
25945;SHT31;13742;49.306;8.636;2023-02-15T05:59:32;2.28;91.99
25945;SHT31;13742;49.306;8.636;2023-02-15T06:00:33;2.26;91.89
25945;SHT31;13742;49.306;8.636;2023-02-15T06:01:32;2.24;91.77
25945;SHT31;13742;49.306;8.636;2023-02-15T06:02:36;2.24;91.86
25945;SHT31;13742;49.306;8.636;2023-02-15T06:03:32;2.23;91.84
25945;SHT31;13742;49.306;8.636;2023-02-15T06:04:32;2.23;91.79
25945;SHT31;13742;49.306;8.636;2023-02-15T06:05:32;2.22;91.74
25945;SHT31;13742;49.306;8.636;2023-02-15T06:06:34;2.23;91.73
25945;SHT31;13742;49.306;8.636;2023-02-15T06:07:32;2.20;91.68
25945;SHT31;13742;49.306;8.636;2023-02-15T06:08:33;2.19;91.61
25945;SHT31;13742;49.306;8.636;2023-02-15T06:09:32;2.20;91.62
25945;SHT31;13742;49.306;8.636;2023-02-15T06:10:32;2.17;91.64
25945;SHT31;13742;49.306;8.636;2023-02-15T06:11:32;2.16;91.65
25945;SHT31;13742;49.306;8.636;2023-02-15T06:12:32;2.16;91.72
25945;SHT31;13742;49.306;8.636;2023-02-15T06:13:33;2.17;91.74
25945;SHT31;13742;49.306;8.636;2023-02-15T06:14:32;2.14;91.69
25945;SHT31;13742;49.306;8.636;2023-02-15T06:15:32;2.16;91.75
25945;SHT31;13742;49.306;8.636;2023-02-15T06:16:32;2.13;91.74
25945;SHT31;13742;49.306;8.636;2023-02-15T06:17:32;2.12;91.65
25945;SHT31;13742;49.306;8.636;2023-02-15T06:18:33;2.09;91.65
25945;SHT31;13742;49.306;8.636;2023-02-15T06:19:32;2.09;91.65
25945;SHT31;13742;49.306;8.636;2023-02-15T06:20:32;2.09;91.78
25945;SHT31;13742;49.306;8.636;2023-02-15T06:21:32;2.09;91.84
25945;SHT31;13742;49.306;8.636;2023-02-15T06:22:32;2.08;91.70
25945;SHT31;13742;49.306;8.636;2023-02-15T06:23:32;2.06;91.83
25945;SHT31;13742;49.306;8.636;2023-02-15T06:24:32;2.06;91.83
25945;SHT31;13742;49.306;8.636;2023-02-15T06:25:32;2.06;91.85
25945;SHT31;13742;49.306;8.636;2023-02-15T06:26:32;2.09;91.79
25945;SHT31;13742;49.306;8.636;2023-02-15T06:27:32;2.05;91.60
25945;SHT31;13742;49.306;8.636;2023-02-15T06:28:32;2.02;91.55
25945;SHT31;13742;49.306;8.636;2023-02-15T06:29:32;2.06;91.68
25945;SHT31;13742;49.306;8.636;2023-02-15T06:30:32;2.03;91.63
25945;SHT31;13742;49.306;8.636;2023-02-15T06:31:32;2.03;91.65
25945;SHT31;13742;49.306;8.636;2023-02-15T06:32:32;2.05;91.64
25945;SHT31;13742;49.306;8.636;2023-02-15T06:33:33;2.02;91.56
25945;SHT31;13742;49.306;8.636;2023-02-15T06:34:32;2.01;91.45
25945;SHT31;13742;49.306;8.636;2023-02-15T06:35:32;1.96;91.48
25945;SHT31;13742;49.306;8.636;2023-02-15T06:36:32;1.93;91.60
25945;SHT31;13742;49.306;8.636;2023-02-15T06:37:32;1.92;91.58
25945;SHT31;13742;49.306;8.636;2023-02-15T06:38:32;1.92;91.54
25945;SHT31;13742;49.306;8.636;2023-02-15T06:39:32;1.89;91.53
25945;SHT31;13742;49.306;8.636;2023-02-15T06:40:32;1.91;91.66
25945;SHT31;13742;49.306;8.636;2023-02-15T06:41:32;1.89;91.63
25945;SHT31;13742;49.306;8.636;2023-02-15T06:42:32;1.86;91.62
25945;SHT31;13742;49.306;8.636;2023-02-15T06:43:33;1.85;91.58
25945;SHT31;13742;49.306;8.636;2023-02-15T06:44:32;1.85;91.59
25945;SHT31;13742;49.306;8.636;2023-02-15T06:45:32;1.85;91.63
25945;SHT31;13742;49.306;8.636;2023-02-15T06:46:32;1.82;91.57
25945;SHT31;13742;49.306;8.636;2023-02-15T06:47:32;1.82;91.64
25945;SHT31;13742;49.306;8.636;2023-02-15T06:48:32;1.82;91.64
25945;SHT31;13742;49.306;8.636;2023-02-15T06:49:32;1.81;91.84
25945;SHT31;13742;49.306;8.636;2023-02-15T06:50:32;1.82;91.77